Time;durP1;ratioP1;P1;durP2;ratioP2;P2;SDS_P1;SDS_P2;PMS_P1;PMS_P2;Temp;Humidity;BMP_temperature;BMP_pressure;BME280_temperature;BME280_humidity;BME280_pressure;Samples;Min_cycle;Max_cycle;Signal;HPM_P1;HPM_P2
2021/12/22 00:01:50;;;;;;;18.40;13.03;;;-0.20;99.90;;;;;;5094598;28;20463;-58
2021/12/22 00:04:17;;;;;;;14.93;13.07;;;-0.20;99.90;;;;;;5094644;28;20522;-56
2021/12/22 00:06:44;;;;;;;16.13;14.47;;;-0.10;99.90;;;;;;5093817;28;21007;-56
2021/12/22 00:09:11;;;;;;;21.00;14.20;;;-0.20;99.90;;;;;;5094612;28;20424;-57
2021/12/22 00:11:39;;;;;;;18.20;13.80;;;-0.10;99.90;;;;;;5093959;28;20467;-56
2021/12/22 00:14:07;;;;;;;19.83;14.37;;;-0.30;99.90;;;;;;5093847;28;20500;-56
2021/12/22 00:16:34;;;;;;;17.47;12.53;;;-0.20;99.90;;;;;;5094266;28;20451;-56
2021/12/22 00:19:02;;;;;;;23.87;14.73;;;-0.20;99.90;;;;;;5094181;28;20451;-56
2021/12/22 00:21:29;;;;;;;27.20;17.60;;;-0.20;99.90;;;;;;5093981;28;20471;-56
2021/12/22 00:23:56;;;;;;;20.20;15.50;;;-0.20;99.90;;;;;;5094208;28;20459;-56
2021/12/22 00:26:23;;;;;;;16.33;13.27;;;-0.20;99.90;;;;;;5093637;28;20530;-56
2021/12/22 00:28:51;;;;;;;18.77;14.20;;;-0.10;99.90;;;;;;5094022;28;20459;-56
2021/12/22 00:31:21;;;;;;;16.93;13.20;;;-0.20;99.90;;;;;;5094072;28;20464;-56
2021/12/22 00:33:49;;;;;;;18.83;14.80;;;-0.10;99.90;;;;;;5093708;28;20891;-56
2021/12/22 00:36:17;;;;;;;17.63;14.73;;;-0.20;99.90;;;;;;5093712;28;20455;-56
2021/12/22 00:38:45;;;;;;;18.67;14.33;;;-0.30;99.90;;;;;;5093730;28;20451;-56
2021/12/22 00:41:13;;;;;;;21.23;14.27;;;-0.40;99.90;;;;;;5093516;28;20495;-56
2021/12/22 00:43:40;;;;;;;25.87;14.53;;;-0.30;99.90;;;;;;5093795;28;20448;-56
2021/12/22 00:46:07;;;;;;;18.43;12.97;;;-0.50;99.90;;;;;;5093802;28;20451;-56
2021/12/22 00:48:36;;;;;;;17.43;15.10;;;-0.40;99.90;;;;;;5093714;28;20485;-58
2021/12/22 00:51:03;;;;;;;21.13;12.83;;;-0.50;99.90;;;;;;5093630;28;20467;-56
2021/12/22 00:53:30;;;;;;;15.17;12.70;;;-0.70;99.90;;;;;;5093352;28;20943;-56
2021/12/22 00:55:58;;;;;;;21.13;13.40;;;-0.70;99.90;;;;;;5094170;28;20443;-56
2021/12/22 00:58:25;;;;;;;16.97;14.03;;;-0.60;99.90;;;;;;5093510;28;20490;-56
2021/12/22 01:00:52;;;;;;;18.17;14.23;;;-0.70;99.90;;;;;;5093467;28;20500;-56
2021/12/22 01:03:21;;;;;;;26.97;14.33;;;-0.80;99.90;;;;;;5093336;28;20501;-56
2021/12/22 01:05:50;;;;;;;19.87;14.50;;;-0.90;99.90;;;;;;5092813;28;20455;-56
2021/12/22 01:08:17;;;;;;;22.03;15.10;;;-0.70;99.90;;;;;;5093263;28;20514;-56
2021/12/22 01:10:45;;;;;;;20.03;15.23;;;-0.60;99.90;;;;;;5093093;28;20466;-56
2021/12/22 01:13:13;;;;;;;18.83;13.63;;;-0.60;99.90;;;;;;5093325;28;20786;-56
2021/12/22 01:15:40;;;;;;;19.07;14.10;;;-0.70;99.90;;;;;;5093242;28;20447;-56
2021/12/22 01:18:12;;;;;;;14.67;12.90;;;-0.70;99.90;;;;;;5093086;28;20439;-56
2021/12/22 01:20:54;;;;;;;20.73;13.13;;;-0.70;99.90;;;;;;5092910;28;20464;-56
2021/12/22 01:23:23;;;;;;;17.50;13.50;;;-0.80;99.90;;;;;;5093186;28;20432;-56
2021/12/22 01:25:50;;;;;;;19.97;13.40;;;-0.70;99.90;;;;;;5093068;28;20478;-56
2021/12/22 01:28:18;;;;;;;19.03;12.90;;;-0.70;99.90;;;;;;5092795;28;20479;-56
2021/12/22 01:30:48;;;;;;;16.70;13.43;;;-0.70;99.90;;;;;;5092839;28;20471;-56
2021/12/22 01:33:17;;;;;;;17.53;14.10;;;-0.80;99.90;;;;;;5092734;28;20447;-56
2021/12/22 01:35:45;;;;;;;18.23;14.43;;;-0.90;99.90;;;;;;5092871;28;20463;-56
2021/12/22 01:38:13;;;;;;;17.80;12.80;;;-1.00;99.90;;;;;;5092766;28;20446;-56
2021/12/22 01:40:45;;;;;;;15.13;12.20;;;-1.00;99.90;;;;;;5092551;28;20467;-56
2021/12/22 01:43:15;;;;;;;17.97;12.83;;;-0.90;99.90;;;;;;5092574;28;20442;-56
2021/12/22 01:51:37;;;;;;;17.63;12.53;;;-0.70;99.90;;;;;;5092575;28;20800;-56
2021/12/22 01:54:08;;;;;;;16.43;12.90;;;-0.70;99.90;;;;;;5092496;28;20926;-56
2021/12/22 01:56:36;;;;;;;15.60;13.80;;;-0.90;99.90;;;;;;5092732;28;20862;-57
2021/12/22 01:59:08;;;;;;;17.97;14.20;;;-0.80;99.90;;;;;;5092707;28;20535;-56
2021/12/22 02:01:36;;;;;;;17.50;14.20;;;-0.80;99.90;;;;;;5092452;28;20991;-56
2021/12/22 02:04:06;;;;;;;14.20;12.73;;;-0.80;99.90;;;;;;5092496;28;20505;-56
2021/12/22 02:06:33;;;;;;;17.13;12.63;;;-0.80;99.90;;;;;;5092447;28;20994;-56
2021/12/22 02:09:00;;;;;;;19.80;14.10;;;-0.80;99.90;;;;;;5092481;28;20472;-57
2021/12/22 02:11:28;;;;;;;17.73;13.17;;;-0.70;99.90;;;;;;5092413;28;20473;-56
2021/12/22 02:14:00;;;;;;;18.00;13.40;;;-0.80;99.90;;;;;;5092586;28;20444;-56
2021/12/22 02:16:30;;;;;;;16.93;13.40;;;-0.90;99.90;;;;;;5092549;28;20428;-56
2021/12/22 02:18:59;;;;;;;21.20;13.73;;;-0.80;99.90;;;;;;5095772;28;20798;-56
2021/12/22 02:21:32;;;;;;;16.97;11.07;;;-0.80;99.90;;;;;;5096419;28;20985;-56
2021/12/22 02:24:00;;;;;;;17.13;12.97;;;-0.70;99.90;;;;;;5096326;28;20894;-56
2021/12/22 02:26:34;;;;;;;18.67;13.07;;;-0.80;99.90;;;;;;5096019;28;20538;-56
2021/12/22 02:29:05;;;;;;;16.90;14.30;;;-0.80;99.90;;;;;;5096242;28;20532;-57
2021/12/22 02:31:39;;;;;;;15.07;12.93;;;-0.80;99.90;;;;;;5096069;28;20525;-56
2021/12/22 02:34:11;;;;;;;15.00;12.47;;;-0.70;99.90;;;;;;5096116;28;20894;-56
2021/12/22 02:36:40;;;;;;;23.20;12.87;;;-0.70;99.90;;;;;;5096200;28;20512;-56
2021/12/22 02:39:08;;;;;;;21.43;13.40;;;-0.80;99.90;;;;;;5095914;28;20440;-56
2021/12/22 02:41:37;;;;;;;16.37;14.17;;;-0.90;99.90;;;;;;5096041;28;20528;-56
2021/12/22 02:44:08;;;;;;;15.70;13.50;;;-0.80;99.90;;;;;;5096283;28;20504;-56
2021/12/22 02:46:38;;;;;;;16.53;12.73;;;-0.80;99.90;;;;;;5095582;28;20428;-56
2021/12/22 02:49:07;;;;;;;17.23;13.70;;;-0.80;99.90;;;;;;5095854;28;20878;-56
2021/12/22 02:51:35;;;;;;;20.27;13.93;;;-0.80;99.90;;;;;;5096075;28;20463;-56
2021/12/22 02:54:10;;;;;;;18.43;12.83;;;-0.80;99.90;;;;;;5095821;28;20447;-57
2021/12/22 02:56:50;;;;;;;15.83;12.57;;;-0.80;99.90;;;;;;5095699;28;20442;-56
2021/12/22 02:59:43;;;;;;;16.70;13.63;;;-0.80;99.90;;;;;;5095443;28;20424;-56
2021/12/22 03:02:20;;;;;;;16.00;14.40;;;-1.00;99.90;;;;;;5095692;28;20506;-56
2021/12/22 03:04:54;;;;;;;14.73;12.17;;;-0.90;99.90;;;;;;5095605;28;20434;-56
2021/12/22 03:07:24;;;;;;;21.27;13.87;;;-0.90;99.90;;;;;;5095195;28;20495;-56
2021/12/22 03:10:00;;;;;;;18.53;13.50;;;-1.00;99.90;;;;;;5095312;28;20962;-56
2021/12/22 03:12:30;;;;;;;15.90;13.03;;;-0.90;99.90;;;;;;5095551;28;20504;-56
2021/12/22 03:14:57;;;;;;;17.57;12.73;;;-1.00;99.90;;;;;;5095374;28;20454;-56
2021/12/22 03:17:24;;;;;;;16.57;13.43;;;-1.30;99.90;;;;;;5095151;28;20949;-57
2021/12/22 03:19:51;;;;;;;16.93;13.23;;;-1.30;99.90;;;;;;5095794;28;20467;-56
2021/12/22 03:22:20;;;;;;;25.53;14.57;;;-1.20;99.90;;;;;;5095233;28;20448;-56
2021/12/22 03:24:50;;;;;;;20.93;14.83;;;-1.20;99.90;;;;;;5094985;28;20483;-56
2021/12/22 03:27:19;;;;;;;15.17;13.07;;;-1.20;99.90;;;;;;5095244;28;20479;-56
2021/12/22 03:29:46;;;;;;;21.13;13.80;;;-1.30;99.90;;;;;;5093956;28;20449;-56
2021/12/22 03:32:14;;;;;;;17.07;13.27;;;-1.50;99.90;;;;;;5094723;28;20457;-56
2021/12/22 03:34:42;;;;;;;18.47;13.67;;;-1.20;99.90;;;;;;5095129;28;20944;-56
2021/12/22 03:37:11;;;;;;;18.70;15.80;;;-1.20;99.90;;;;;;5095310;28;20550;-57
2021/12/22 03:39:39;;;;;;;27.30;15.17;;;-1.20;99.90;;;;;;5094774;28;20802;-56
2021/12/22 03:42:08;;;;;;;17.40;14.30;;;-1.30;99.90;;;;;;5095251;28;20861;-56
2021/12/22 03:44:36;;;;;;;18.20;15.93;;;-1.40;99.90;;;;;;5094548;28;20454;-56
2021/12/22 03:47:04;;;;;;;21.73;15.10;;;-1.50;99.90;;;;;;5094291;28;20450;-56
2021/12/22 03:49:32;;;;;;;20.23;15.57;;;-1.50;99.90;;;;;;5094184;28;20506;-56
2021/12/22 03:51:59;;;;;;;18.90;15.70;;;-1.50;99.90;;;;;;5094816;28;20938;-56
2021/12/22 03:54:26;;;;;;;18.37;14.87;;;-1.50;99.90;;;;;;5094221;28;20451;-56
2021/12/22 03:56:53;;;;;;;19.37;14.37;;;-1.50;99.90;;;;;;5094617;28;20814;-56
2021/12/22 03:59:22;;;;;;;20.13;16.77;;;-1.50;99.90;;;;;;5094803;28;20440;-56
2021/12/22 04:01:52;;;;;;;23.80;15.27;;;-1.50;99.90;;;;;;5094360;28;20562;-56
2021/12/22 04:04:19;;;;;;;19.37;14.73;;;-1.50;99.90;;;;;;5094382;28;20444;-56
2021/12/22 04:06:47;;;;;;;21.07;16.33;;;-1.60;99.90;;;;;;5094362;28;20479;-56
2021/12/22 04:09:16;;;;;;;17.60;15.10;;;-1.70;99.90;;;;;;5094378;28;20509;-56
2021/12/22 04:11:43;;;;;;;23.43;16.50;;;-1.70;99.90;;;;;;5094335;28;20546;-56
2021/12/22 04:14:13;;;;;;;18.03;15.33;;;-1.60;99.90;;;;;;5094572;28;20431;-57
2021/12/22 04:16:40;;;;;;;22.70;15.70;;;-1.60;99.90;;;;;;5094601;28;20435;-56
2021/12/22 04:19:08;;;;;;;21.83;16.63;;;-1.60;99.90;;;;;;5093879;28;20625;-57
2021/12/22 04:21:36;;;;;;;19.50;14.60;;;-1.40;99.90;;;;;;5094056;28;20828;-57
2021/12/22 04:24:05;;;;;;;16.33;13.20;;;-1.40;99.90;;;;;;5094252;28;20447;-57
2021/12/22 04:26:33;;;;;;;15.77;13.80;;;-1.40;99.90;;;;;;5094092;28;20451;-57
2021/12/22 04:29:00;;;;;;;16.27;13.00;;;-1.80;99.90;;;;;;5093949;28;20493;-56
2021/12/22 04:31:28;;;;;;;20.70;14.47;;;-1.80;99.90;;;;;;5093986;28;20463;-57
2021/12/22 04:33:56;;;;;;;18.53;13.93;;;-1.70;99.90;;;;;;5093800;28;20602;-57
2021/12/22 04:36:24;;;;;;;23.93;15.47;;;-1.70;99.90;;;;;;5093625;28;20452;-57
2021/12/22 04:38:53;;;;;;;17.00;15.20;;;-1.70;99.90;;;;;;5093792;28;20483;-57
2021/12/22 04:41:20;;;;;;;23.03;15.10;;;-1.70;99.90;;;;;;5093347;28;20463;-56
2021/12/22 04:43:47;;;;;;;16.00;14.20;;;-1.70;99.90;;;;;;5093687;28;20447;-56
2021/12/22 04:46:14;;;;;;;19.63;16.50;;;-1.70;99.90;;;;;;5093973;28;20440;-56
2021/12/22 04:48:41;;;;;;;23.50;15.97;;;-1.70;99.90;;;;;;5093294;28;20946;-56
2021/12/22 04:51:14;;;;;;;33.93;16.40;;;-1.60;99.90;;;;;;5093250;28;20516;-56
2021/12/22 04:53:51;;;;;;;24.33;15.70;;;-1.60;99.90;;;;;;5093360;28;20432;-57
2021/12/22 04:56:19;;;;;;;22.23;16.30;;;-1.50;99.90;;;;;;5093768;28;20432;-57
2021/12/22 04:58:50;;;;;;;21.67;14.70;;;-1.40;99.90;;;;;;5093084;28;20490;-56
2021/12/22 05:01:17;;;;;;;22.07;15.13;;;-1.50;99.90;;;;;;5093166;28;20463;-57
2021/12/22 05:03:44;;;;;;;20.13;15.60;;;-1.50;99.90;;;;;;5093358;28;20808;-57
2021/12/22 05:06:11;;;;;;;22.67;16.23;;;-1.50;99.90;;;;;;5093510;28;20455;-56
2021/12/22 05:08:39;;;;;;;19.90;15.50;;;-1.50;99.90;;;;;;5093090;28;20427;-56
2021/12/22 05:11:08;;;;;;;28.70;16.60;;;-1.70;99.90;;;;;;5093518;28;20463;-56
2021/12/22 05:13:36;;;;;;;20.87;16.23;;;-1.80;99.90;;;;;;5093191;28;20447;-56
2021/12/22 05:16:05;;;;;;;18.70;15.40;;;-1.80;99.90;;;;;;5093270;28;20448;-56
2021/12/22 05:18:49;;;;;;;21.73;14.97;;;-1.70;99.90;;;;;;5093041;28;20548;-60
2021/12/22 05:21:16;;;;;;;25.50;17.60;;;-1.80;99.90;;;;;;5092952;28;20473;-56
2021/12/22 05:23:43;;;;;;;23.33;16.20;;;-1.80;99.90;;;;;;5093182;28;20450;-56
2021/12/22 05:26:12;;;;;;;18.07;14.80;;;-1.70;99.90;;;;;;5092898;28;20785;-56
2021/12/22 05:28:39;;;;;;;19.73;16.23;;;-1.50;99.90;;;;;;5092935;28;20930;-56
2021/12/22 05:31:06;;;;;;;23.93;16.40;;;-1.60;99.90;;;;;;5092857;28;20467;-56
2021/12/22 05:33:33;;;;;;;24.47;16.67;;;-1.70;99.90;;;;;;5092673;28;20455;-56
2021/12/22 05:36:00;;;;;;;21.53;15.27;;;-1.70;99.90;;;;;;5092885;28;20462;-57
2021/12/22 05:38:28;;;;;;;21.63;14.40;;;-1.70;99.90;;;;;;5092965;28;20561;-56
2021/12/22 05:40:55;;;;;;;21.10;14.70;;;-1.80;99.90;;;;;;5092555;28;21053;-57
2021/12/22 05:43:23;;;;;;;19.73;14.57;;;-1.90;99.90;;;;;;5092655;28;20447;-56
2021/12/22 05:45:51;;;;;;;16.70;13.60;;;-1.90;99.90;;;;;;5092975;28;20817;-57
2021/12/22 05:48:18;;;;;;;25.27;16.87;;;-1.70;99.90;;;;;;5092696;28;20922;-57
2021/12/22 05:50:49;;;;;;;19.23;15.73;;;-1.70;99.90;;;;;;5092366;28;21004;-57
2021/12/22 05:53:16;;;;;;;18.10;15.13;;;-1.80;99.90;;;;;;5094798;28;20432;-57
2021/12/22 05:55:44;;;;;;;21.37;14.87;;;-1.90;99.90;;;;;;5096879;28;21007;-57
2021/12/22 05:58:11;;;;;;;19.27;14.60;;;-1.90;99.90;;;;;;5096523;28;20482;-57
2021/12/22 06:00:40;;;;;;;18.93;14.97;;;-2.00;99.90;;;;;;5096487;28;20832;-57
2021/12/22 06:03:07;;;;;;;21.53;15.13;;;-2.00;99.90;;;;;;5096650;28;21003;-57
2021/12/22 06:05:34;;;;;;;18.73;14.97;;;-2.00;99.90;;;;;;5096802;28;20458;-57
2021/12/22 06:08:01;;;;;;;18.73;15.57;;;-1.90;99.90;;;;;;5096375;28;20475;-57
2021/12/22 06:10:28;;;;;;;19.50;15.07;;;-2.00;99.90;;;;;;5096537;28;20467;-57
2021/12/22 06:12:56;;;;;;;22.60;15.47;;;-2.00;99.90;;;;;;5096480;28;20447;-57
2021/12/22 06:15:23;;;;;;;18.20;15.37;;;-1.90;99.90;;;;;;5096641;28;20482;-56
2021/12/22 06:17:55;;;;;;;26.10;16.47;;;-1.80;99.90;;;;;;5096823;28;20565;-57
2021/12/22 06:20:23;;;;;;;18.67;15.13;;;-1.90;99.90;;;;;;5096436;28;20566;-57
2021/12/22 06:22:50;;;;;;;20.07;15.07;;;-1.80;99.90;;;;;;5096326;28;20443;-57
2021/12/22 06:25:18;;;;;;;16.97;14.33;;;-1.70;99.90;;;;;;5096469;28;20447;-57
2021/12/22 06:27:45;;;;;;;18.33;15.27;;;-1.60;99.90;;;;;;5095990;28;20927;-57
2021/12/22 06:30:13;;;;;;;17.57;13.73;;;-1.60;99.90;;;;;;5095930;28;20562;-57
2021/12/22 06:32:40;;;;;;;19.03;13.90;;;-1.60;99.90;;;;;;5096376;28;20482;-57
2021/12/22 06:35:09;;;;;;;18.83;14.73;;;-1.50;99.90;;;;;;5096299;28;20434;-57
2021/12/22 06:37:37;;;;;;;19.63;16.07;;;-1.50;99.90;;;;;;5096214;28;20515;-57
2021/12/22 06:40:06;;;;;;;22.93;15.60;;;-1.70;99.90;;;;;;5095756;28;20570;-57
2021/12/22 06:42:33;;;;;;;22.93;17.07;;;-1.60;99.90;;;;;;5095935;28;20922;-57
2021/12/22 06:45:01;;;;;;;25.17;17.17;;;-1.70;99.90;;;;;;5096097;28;20443;-57
2021/12/22 06:47:28;;;;;;;21.53;16.43;;;-1.60;99.90;;;;;;5095595;28;20457;-57
2021/12/22 06:49:55;;;;;;;27.70;18.40;;;-1.60;99.90;;;;;;5095672;28;20470;-57
2021/12/22 06:52:23;;;;;;;25.20;16.40;;;-1.60;99.90;;;;;;5095892;28;20447;-57
2021/12/22 06:54:51;;;;;;;18.90;14.37;;;-1.70;99.90;;;;;;5095523;28;20447;-57
2021/12/22 06:57:21;;;;;;;19.07;15.10;;;-1.90;99.90;;;;;;5095971;28;20481;-59
2021/12/22 06:59:49;;;;;;;19.10;16.00;;;-1.90;99.90;;;;;;5095955;28;20471;-58
2021/12/22 07:02:16;;;;;;;20.73;16.07;;;-1.90;99.90;;;;;;5095556;28;20455;-57
2021/12/22 07:04:44;;;;;;;23.03;16.83;;;-1.80;99.90;;;;;;5094415;28;20447;-57
2021/12/22 07:07:11;;;;;;;21.80;15.40;;;-1.70;99.90;;;;;;5095352;28;20569;-57
2021/12/22 07:09:39;;;;;;;19.23;14.63;;;-1.80;99.90;;;;;;5095110;28;20531;-57
2021/12/22 07:12:07;;;;;;;20.00;14.03;;;-1.70;99.90;;;;;;5095085;28;20448;-57
2021/12/22 07:14:34;;;;;;;20.17;15.17;;;-1.80;99.90;;;;;;5095485;28;20486;-57
2021/12/22 07:17:02;;;;;;;23.73;13.80;;;-1.90;99.90;;;;;;5095060;28;20458;-57
2021/12/22 07:19:29;;;;;;;21.40;14.40;;;-2.00;99.90;;;;;;5094738;28;20570;-57
2021/12/22 07:21:56;;;;;;;23.30;16.20;;;-1.90;99.90;;;;;;5095056;28;20454;-58
2021/12/22 07:24:23;;;;;;;17.70;14.53;;;-2.00;99.90;;;;;;5094841;28;20440;-57
2021/12/22 07:26:52;;;;;;;26.70;16.77;;;-1.90;99.90;;;;;;5094754;28;20447;-58
2021/12/22 07:29:19;;;;;;;22.23;14.87;;;-1.80;99.90;;;;;;5095312;28;20444;-56
2021/12/22 07:31:46;;;;;;;20.40;15.50;;;-1.80;99.90;;;;;;5095012;28;20840;-55
2021/12/22 07:34:24;;;;;;;24.30;15.33;;;-1.70;99.90;;;;;;5095149;28;20530;-56
2021/12/22 07:36:55;;;;;;;20.20;16.33;;;-1.70;99.90;;;;;;5095145;28;20508;-58
2021/12/22 07:39:22;;;;;;;16.80;14.67;;;-1.70;99.90;;;;;;5095089;28;20471;-56
2021/12/22 07:41:51;;;;;;;18.90;14.13;;;-1.60;99.90;;;;;;5094443;28;20467;-57
2021/12/22 07:44:18;;;;;;;18.93;13.97;;;-1.70;99.90;;;;;;5094560;28;20450;-57
2021/12/22 07:46:45;;;;;;;20.40;16.00;;;-1.60;99.90;;;;;;5094633;28;20949;-57
2021/12/22 07:49:12;;;;;;;20.03;15.33;;;-1.60;99.90;;;;;;5094337;28;20447;-57
2021/12/22 07:51:40;;;;;;;22.90;16.80;;;-1.50;99.90;;;;;;5094496;28;20466;-57
2021/12/22 07:54:07;;;;;;;26.40;15.10;;;-1.60;99.90;;;;;;5094173;28;20459;-57
2021/12/22 07:56:34;;;;;;;23.97;15.43;;;-1.40;99.90;;;;;;5094347;28;20490;-57
2021/12/22 07:59:03;;;;;;;22.53;15.00;;;-1.40;99.90;;;;;;5094103;28;20569;-57
2021/12/22 08:01:32;;;;;;;19.03;14.37;;;-1.40;99.90;;;;;;5094277;28;20550;-57
2021/12/22 08:04:00;;;;;;;21.90;16.07;;;-1.50;99.90;;;;;;5094098;28;20452;-57
2021/12/22 08:06:27;;;;;;;20.80;16.30;;;-1.50;99.90;;;;;;5093736;28;20487;-57
2021/12/22 08:08:54;;;;;;;28.40;15.70;;;-1.30;99.90;;;;;;5094233;28;20883;-57
2021/12/22 08:11:21;;;;;;;23.67;15.60;;;-1.40;99.90;;;;;;5094230;28;20478;-57
2021/12/22 08:13:48;;;;;;;20.93;16.57;;;-1.40;99.90;;;;;;5094209;28;20469;-57
2021/12/22 08:16:17;;;;;;;23.67;15.47;;;-1.30;99.90;;;;;;5093850;28;20450;-57
2021/12/22 08:18:44;;;;;;;21.23;17.10;;;-1.40;99.90;;;;;;5093801;28;20448;-57
2021/12/22 08:21:11;;;;;;;18.87;15.67;;;-1.40;99.90;;;;;;5093846;28;20849;-57
2021/12/22 08:23:38;;;;;;;22.23;16.27;;;-1.30;99.90;;;;;;5093698;28;20449;-57
2021/12/22 08:26:06;;;;;;;26.33;16.70;;;-1.30;99.90;;;;;;5093786;28;20998;-57
2021/12/22 08:28:33;;;;;;;19.30;15.50;;;-1.20;99.90;;;;;;5094045;28;20527;-57
2021/12/22 08:31:00;;;;;;;21.37;16.30;;;-1.20;99.90;;;;;;5093901;28;20495;-57
2021/12/22 08:33:31;;;;;;;21.73;16.10;;;-1.20;99.90;;;;;;5093831;28;20543;-57
2021/12/22 08:38:54;;;;;;;19.13;15.03;;;-1.20;99.90;;;;;;5072106;28;20457;-57
2021/12/22 08:41:24;;;;;;;23.53;15.27;;;-1.20;99.90;;;;;;5092994;28;21112;-57
2021/12/22 08:43:53;;;;;;;22.27;16.93;;;-1.00;99.90;;;;;;5093306;28;20930;-57
2021/12/22 08:46:20;;;;;;;23.73;15.00;;;-0.90;99.90;;;;;;5093466;28;20526;-57
2021/12/22 08:48:49;;;;;;;20.73;16.20;;;-1.00;99.90;;;;;;5093217;28;20452;-57
2021/12/22 08:51:16;;;;;;;22.23;16.00;;;-0.90;99.90;;;;;;5093212;28;20478;-57
2021/12/22 08:53:43;;;;;;;19.07;14.40;;;-1.00;99.90;;;;;;5093089;28;20873;-57
2021/12/22 08:56:11;;;;;;;23.47;14.93;;;-0.90;99.90;;;;;;5093211;28;20493;-57
2021/12/22 08:58:39;;;;;;;21.93;16.17;;;-0.80;99.90;;;;;;5093057;28;20916;-57
2021/12/22 09:01:07;;;;;;;22.83;16.30;;;-0.80;99.90;;;;;;5093046;28;20510;-57
2021/12/22 09:03:35;;;;;;;22.60;14.87;;;-0.60;99.90;;;;;;5093014;28;20858;-57
2021/12/22 09:06:04;;;;;;;23.40;16.00;;;-0.60;99.90;;;;;;5093378;28;20459;-57
2021/12/22 09:08:32;;;;;;;17.83;14.83;;;-0.50;99.90;;;;;;5091985;28;21034;-57
2021/12/22 09:10:59;;;;;;;21.63;16.53;;;-0.40;99.90;;;;;;5093199;28;20470;-59
2021/12/22 09:13:27;;;;;;;21.30;15.97;;;-0.40;99.90;;;;;;5093400;28;20482;-57
2021/12/22 09:15:54;;;;;;;21.90;16.27;;;-0.30;99.90;;;;;;5093173;28;20454;-57
2021/12/22 09:18:21;;;;;;;25.03;18.00;;;-0.30;99.90;;;;;;5093222;28;20883;-58
2021/12/22 09:20:48;;;;;;;20.00;15.57;;;-0.20;99.90;;;;;;5092462;28;20577;-57
2021/12/22 09:23:17;;;;;;;21.23;15.47;;;-0.20;99.90;;;;;;5092292;28;20450;-57
2021/12/22 09:25:45;;;;;;;16.80;14.60;;;-0.10;99.90;;;;;;5093121;28;20494;-57
2021/12/22 09:28:14;;;;;;;17.83;13.43;;;-0.10;99.90;;;;;;5092020;28;20538;-57
2021/12/22 09:30:42;;;;;;;20.93;14.20;;;0.00;99.90;;;;;;5092648;28;20470;-57
2021/12/22 09:33:12;;;;;;;22.53;18.10;;;0.00;99.90;;;;;;5092502;28;20451;-57
2021/12/22 09:35:39;;;;;;;22.23;15.63;;;0.00;99.90;;;;;;5092641;28;20460;-57
2021/12/22 09:38:07;;;;;;;20.73;16.30;;;0.20;99.90;;;;;;5092535;28;20527;-57
2021/12/22 09:40:36;;;;;;;21.80;15.87;;;0.20;99.90;;;;;;5092652;28;20487;-57
2021/12/22 09:43:03;;;;;;;18.27;12.97;;;0.20;99.90;;;;;;5092842;28;20443;-57
2021/12/22 09:45:32;;;;;;;16.50;14.70;;;0.20;99.90;;;;;;5092307;28;20930;-57
2021/12/22 09:48:22;;;;;;;16.40;13.40;;;0.40;99.90;;;;;;5092583;28;20451;-57
2021/12/22 09:50:54;;;;;;;19.07;14.60;;;0.50;99.90;;;;;;5092524;28;21054;-57
2021/12/22 09:53:23;;;;;;;18.20;12.90;;;0.50;99.90;;;;;;5092888;28;20428;-57
2021/12/22 09:55:53;;;;;;;19.47;14.83;;;0.40;99.90;;;;;;5092491;28;20451;-57
2021/12/22 09:58:20;;;;;;;20.07;14.20;;;0.60;99.90;;;;;;5092263;28;20538;-57
2021/12/22 10:00:49;;;;;;;20.00;14.33;;;0.80;99.90;;;;;;5092477;28;20575;-57
2021/12/22 10:03:18;;;;;;;18.30;13.13;;;0.70;99.90;;;;;;5092836;28;20439;-57
2021/12/22 10:05:46;;;;;;;20.43;15.63;;;0.80;99.90;;;;;;5092561;28;20817;-57
2021/12/22 10:08:16;;;;;;;19.97;15.13;;;0.80;99.90;;;;;;5092083;28;20471;-57
2021/12/22 10:10:45;;;;;;;20.30;15.73;;;0.80;99.90;;;;;;5092550;28;20475;-57
2021/12/22 10:13:16;;;;;;;17.73;13.77;;;1.00;99.90;;;;;;5092125;28;20526;-57
2021/12/22 10:15:44;;;;;;;18.50;14.00;;;0.90;99.90;;;;;;5092048;28;20446;-57
2021/12/22 10:18:13;;;;;;;19.37;13.97;;;1.00;99.90;;;;;;5092220;28;20543;-57
2021/12/22 10:20:42;;;;;;;16.97;13.97;;;1.10;99.90;;;;;;5092142;28;20954;-57
2021/12/22 10:23:24;;;;;;;17.80;13.97;;;1.10;99.90;;;;;;5092215;28;20568;-57
2021/12/22 10:25:56;;;;;;;18.70;13.87;;;1.10;99.90;;;;;;5091889;28;20527;-57
2021/12/22 10:28:28;;;;;;;20.40;14.50;;;1.30;99.90;;;;;;5092423;28;20441;-57
2021/12/22 10:30:58;;;;;;;17.67;13.77;;;1.40;99.90;;;;;;5092155;28;20470;-57
2021/12/22 10:33:28;;;;;;;18.63;13.97;;;1.50;99.90;;;;;;5091752;28;20454;-57
2021/12/22 10:35:57;;;;;;;21.00;13.27;;;1.70;99.90;;;;;;5092209;28;20492;-57
2021/12/22 10:38:26;;;;;;;18.97;12.60;;;2.30;99.20;;;;;;5093125;28;20456;-57
2021/12/22 10:40:56;;;;;;;19.83;14.23;;;3.40;98.10;;;;;;5095825;28;20479;-58
2021/12/22 10:43:28;;;;;;;17.67;14.07;;;4.70;97.20;;;;;;5095763;28;20985;-58
2021/12/22 10:45:57;;;;;;;16.53;13.50;;;5.30;94.20;;;;;;5095856;28;20432;-57
2021/12/22 10:51:11;;;;;;;15.80;12.87;;;6.00;92.10;;;;;;5095756;28;20802;-57
2021/12/22 10:53:44;;;;;;;13.73;12.30;;;6.30;91.40;;;;;;5095617;28;20447;-57
2021/12/22 10:56:22;;;;;;;15.53;13.17;;;6.40;90.40;;;;;;5095594;28;20443;-57
2021/12/22 10:59:00;;;;;;;16.07;12.23;;;6.60;89.20;;;;;;5095438;28;20489;-58
2021/12/22 11:01:28;;;;;;;15.90;14.10;;;7.10;87.40;;;;;;5095038;28;20486;-58
2021/12/22 11:04:02;;;;;;;16.30;13.37;;;7.50;86.30;;;;;;5095582;28;20483;-57
2021/12/22 11:06:31;;;;;;;17.47;12.93;;;7.40;85.00;;;;;;5095528;28;20486;-57
2021/12/22 11:09:00;;;;;;;15.50;12.00;;;7.20;85.50;;;;;;5095156;28;20530;-57
2021/12/22 11:11:33;;;;;;;13.67;12.20;;;7.00;83.80;;;;;;5094907;28;20570;-57
2021/12/22 11:14:17;;;;;;;16.37;12.23;;;7.70;84.70;;;;;;5095179;28;20452;-57
2021/12/22 11:17:06;;;;;;;18.77;14.13;;;7.70;82.50;;;;;;5095575;28;20729;-57
2021/12/22 11:19:35;;;;;;;16.93;13.47;;;7.80;81.90;;;;;;5090752;28;20447;-58
2021/12/22 11:22:10;;;;;;;16.33;13.27;;;7.70;82.90;;;;;;5095144;28;20995;-58
2021/12/22 11:24:40;;;;;;;20.37;14.47;;;7.50;82.10;;;;;;5095287;28;20883;-58
2021/12/22 11:27:09;;;;;;;16.30;14.40;;;7.20;82.00;;;;;;5095446;28;20470;-58
2021/12/22 11:29:39;;;;;;;19.00;14.90;;;7.00;82.90;;;;;;5095154;28;20443;-58
2021/12/22 11:32:08;;;;;;;15.07;13.50;;;6.90;83.00;;;;;;5095133;28;20762;-57
2021/12/22 11:34:37;;;;;;;17.63;13.80;;;6.40;83.10;;;;;;5094922;28;20497;-59
2021/12/22 11:37:06;;;;;;;20.27;15.17;;;6.00;84.30;;;;;;5095015;28;20452;-59
2021/12/22 11:39:34;;;;;;;17.53;13.80;;;5.70;85.50;;;;;;5094612;28;20444;-59
2021/12/22 11:42:04;;;;;;;21.70;15.13;;;5.90;86.40;;;;;;5094783;28;20531;-59
2021/12/22 11:44:32;;;;;;;17.10;14.50;;;6.50;87.10;;;;;;5094758;28;20451;-59
2021/12/22 11:47:03;;;;;;;20.10;12.70;;;6.10;85.70;;;;;;5094936;28;20447;-60
2021/12/22 11:49:34;;;;;;;16.17;13.63;;;5.10;87.00;;;;;;5094258;28;20530;-58
2021/12/22 11:52:02;;;;;;;19.00;13.93;;;4.70;89.70;;;;;;5094099;28;20420;-58
2021/12/22 11:54:30;;;;;;;18.20;14.37;;;4.80;90.10;;;;;;5094609;28;20447;-57
2021/12/22 11:56:58;;;;;;;18.83;14.80;;;4.70;90.40;;;;;;5094698;28;20500;-58
2021/12/22 11:59:29;;;;;;;20.43;15.77;;;4.80;90.30;;;;;;5094181;28;21025;-58
2021/12/22 12:02:26;;;;;;;15.77;13.17;;;4.90;90.40;;;;;;5093919;28;20463;-58
2021/12/22 12:04:56;;;;;;;20.60;15.60;;;4.70;90.00;;;;;;5059237;28;20542;-58
2021/12/22 12:07:48;;;;;;;17.53;14.90;;;4.40;90.20;;;;;;5093849;28;20471;-58
2021/12/22 12:10:46;;;;;;;17.40;14.90;;;4.30;90.70;;;;;;5094001;28;20961;-58
2021/12/22 12:13:36;;;;;;;19.77;13.87;;;4.20;90.30;;;;;;5094056;28;20459;-58
2021/12/22 12:22:33;;;;;;;17.90;14.17;;;4.70;91.00;;;;;;5093535;28;20487;-58
2021/12/22 12:25:06;;;;;;;23.17;14.43;;;4.60;90.80;;;;;;5093528;28;20478;-58
2021/12/22 12:27:47;;;;;;;19.67;15.20;;;4.70;91.20;;;;;;5093593;28;20424;-58
2021/12/22 12:30:17;;;;;;;16.50;12.93;;;4.40;90.50;;;;;;5093813;28;20467;-58
2021/12/22 12:33:00;;;;;;;19.53;14.80;;;4.00;90.70;;;;;;5093615;28;20479;-58
2021/12/22 12:35:31;;;;;;;16.33;13.60;;;3.90;90.80;;;;;;5093602;28;20992;-58
2021/12/22 12:38:09;;;;;;;19.57;13.60;;;4.10;91.30;;;;;;5093289;28;20427;-58
2021/12/22 12:41:14;;;;;;;18.63;14.87;;;3.80;91.70;;;;;;5093746;28;20483;-58
2021/12/22 12:44:12;;;;;;;21.50;13.37;;;3.60;92.10;;;;;;5093105;28;20432;-56
2021/12/22 12:46:43;;;;;;;18.07;14.33;;;3.80;91.90;;;;;;5059266;28;20447;-56
2021/12/22 12:49:40;;;;;;;18.37;13.60;;;3.90;91.60;;;;;;5093743;28;20854;-57
2021/12/22 12:52:11;;;;;;;19.20;14.47;;;4.10;92.00;;;;;;5093303;28;20439;-57
2021/12/22 12:54:48;;;;;;;20.50;13.80;;;4.30;91.80;;;;;;5093548;28;20424;-57
2021/12/22 12:57:39;;;;;;;18.00;14.27;;;4.20;91.40;;;;;;5092848;28;20427;-57
2021/12/22 13:00:19;;;;;;;20.80;14.07;;;4.20;92.10;;;;;;5092808;28;21009;-57
2021/12/22 13:02:46;;;;;;;20.27;14.77;;;4.10;91.60;;;;;;5091874;28;20432;-57